sensor_id;sensor_type;location;lat;lon;timestamp;P1;durP1;ratioP1;P2;durP2;ratioP2
63016;SDS011;50274;45.640;11.756;2023-05-16T00:01:39;3.63;;;1.00;;
63016;SDS011;50274;45.640;11.756;2023-05-16T00:04:05;3.97;;;1.23;;
63016;SDS011;50274;45.640;11.756;2023-05-16T00:06:32;3.40;;;1.20;;
63016;SDS011;50274;45.640;11.756;2023-05-16T00:08:59;3.33;;;0.90;;
63016;SDS011;50274;45.640;11.756;2023-05-16T00:11:25;3.87;;;0.80;;
63016;SDS011;50274;45.640;11.756;2023-05-16T00:13:51;3.50;;;1.08;;
63016;SDS011;50274;45.640;11.756;2023-05-16T00:16:17;5.18;;;0.93;;
63016;SDS011;50274;45.640;11.756;2023-05-16T00:18:45;3.87;;;1.20;;
63016;SDS011;50274;45.640;11.756;2023-05-16T00:21:12;3.85;;;1.00;;
63016;SDS011;50274;45.640;11.756;2023-05-16T00:23:38;4.07;;;1.13;;
63016;SDS011;50274;45.640;11.756;2023-05-16T00:26:04;5.40;;;1.10;;
63016;SDS011;50274;45.640;11.756;2023-05-16T00:28:29;4.00;;;1.00;;
63016;SDS011;50274;45.640;11.756;2023-05-16T00:30:55;2.97;;;0.90;;
63016;SDS011;50274;45.640;11.756;2023-05-16T00:33:21;3.40;;;0.90;;
63016;SDS011;50274;45.640;11.756;2023-05-16T00:35:47;3.40;;;0.90;;
63016;SDS011;50274;45.640;11.756;2023-05-16T00:38:13;4.47;;;0.70;;
63016;SDS011;50274;45.640;11.756;2023-05-16T00:40:39;4.72;;;0.93;;
63016;SDS011;50274;45.640;11.756;2023-05-16T00:43:05;3.30;;;0.90;;
63016;SDS011;50274;45.640;11.756;2023-05-16T00:45:30;3.28;;;0.90;;
63016;SDS011;50274;45.640;11.756;2023-05-16T00:47:56;3.47;;;0.80;;
63016;SDS011;50274;45.640;11.756;2023-05-16T00:50:22;4.40;;;0.80;;
63016;SDS011;50274;45.640;11.756;2023-05-16T00:52:48;10.48;;;1.00;;
63016;SDS011;50274;45.640;11.756;2023-05-16T00:55:13;3.83;;;1.10;;
63016;SDS011;50274;45.640;11.756;2023-05-16T00:57:39;2.80;;;0.70;;
63016;SDS011;50274;45.640;11.756;2023-05-16T01:00:06;2.95;;;0.90;;
63016;SDS011;50274;45.640;11.756;2023-05-16T01:02:36;2.95;;;0.75;;
63016;SDS011;50274;45.640;11.756;2023-05-16T01:05:03;5.00;;;0.98;;
63016;SDS011;50274;45.640;11.756;2023-05-16T01:07:35;3.63;;;0.87;;
63016;SDS011;50274;45.640;11.756;2023-05-16T01:10:01;4.18;;;0.90;;
63016;SDS011;50274;45.640;11.756;2023-05-16T01:15:46;3.88;;;1.05;;
63016;SDS011;50274;45.640;11.756;2023-05-16T01:18:24;3.83;;;0.80;;
63016;SDS011;50274;45.640;11.756;2023-05-16T01:20:58;3.30;;;0.90;;
63016;SDS011;50274;45.640;11.756;2023-05-16T01:28:38;3.10;;;0.67;;
63016;SDS011;50274;45.640;11.756;2023-05-16T01:31:04;4.10;;;0.80;;
63016;SDS011;50274;45.640;11.756;2023-05-16T01:33:30;2.35;;;0.50;;
63016;SDS011;50274;45.640;11.756;2023-05-16T01:41:42;2.63;;;0.60;;
63016;SDS011;50274;45.640;11.756;2023-05-16T01:44:21;4.65;;;0.50;;
63016;SDS011;50274;45.640;11.756;2023-05-16T01:46:51;3.60;;;0.60;;
63016;SDS011;50274;45.640;11.756;2023-05-16T01:52:04;2.10;;;0.47;;
63016;SDS011;50274;45.640;11.756;2023-05-16T01:54:44;4.20;;;0.68;;
63016;SDS011;50274;45.640;11.756;2023-05-16T01:57:32;2.40;;;0.50;;
63016;SDS011;50274;45.640;11.756;2023-05-16T02:00:14;3.30;;;0.60;;
63016;SDS011;50274;45.640;11.756;2023-05-16T02:02:48;2.73;;;0.43;;
63016;SDS011;50274;45.640;11.756;2023-05-16T02:05:14;2.17;;;0.40;;
63016;SDS011;50274;45.640;11.756;2023-05-16T02:07:39;4.20;;;0.50;;
63016;SDS011;50274;45.640;11.756;2023-05-16T02:10:06;2.60;;;0.53;;
63016;SDS011;50274;45.640;11.756;2023-05-16T02:12:32;2.03;;;0.43;;
63016;SDS011;50274;45.640;11.756;2023-05-16T02:14:57;2.65;;;0.65;;
63016;SDS011;50274;45.640;11.756;2023-05-16T02:17:23;3.83;;;0.70;;
63016;SDS011;50274;45.640;11.756;2023-05-16T02:19:49;3.10;;;0.73;;
63016;SDS011;50274;45.640;11.756;2023-05-16T02:22:16;4.57;;;0.70;;
63016;SDS011;50274;45.640;11.756;2023-05-16T02:24:42;4.32;;;0.60;;
63016;SDS011;50274;45.640;11.756;2023-05-16T02:27:08;2.78;;;0.60;;
63016;SDS011;50274;45.640;11.756;2023-05-16T02:29:34;2.17;;;0.47;;
63016;SDS011;50274;45.640;11.756;2023-05-16T02:32:00;3.28;;;0.80;;
63016;SDS011;50274;45.640;11.756;2023-05-16T02:34:26;4.43;;;0.80;;
63016;SDS011;50274;45.640;11.756;2023-05-16T02:36:52;4.57;;;1.07;;
63016;SDS011;50274;45.640;11.756;2023-05-16T02:39:18;2.92;;;0.88;;
63016;SDS011;50274;45.640;11.756;2023-05-16T02:41:43;2.20;;;0.50;;
63016;SDS011;50274;45.640;11.756;2023-05-16T02:44:09;3.78;;;0.50;;
63016;SDS011;50274;45.640;11.756;2023-05-16T02:46:35;2.90;;;0.65;;
63016;SDS011;50274;45.640;11.756;2023-05-16T02:49:01;3.33;;;0.60;;
63016;SDS011;50274;45.640;11.756;2023-05-16T02:51:27;3.47;;;0.50;;
63016;SDS011;50274;45.640;11.756;2023-05-16T02:53:53;3.20;;;0.60;;
63016;SDS011;50274;45.640;11.756;2023-05-16T02:56:21;2.88;;;0.50;;
63016;SDS011;50274;45.640;11.756;2023-05-16T02:58:47;2.30;;;0.60;;
63016;SDS011;50274;45.640;11.756;2023-05-16T03:01:14;2.70;;;0.73;;
63016;SDS011;50274;45.640;11.756;2023-05-16T03:03:40;2.72;;;0.60;;
63016;SDS011;50274;45.640;11.756;2023-05-16T03:06:06;3.75;;;1.00;;
63016;SDS011;50274;45.640;11.756;2023-05-16T03:08:32;3.83;;;0.70;;
63016;SDS011;50274;45.640;11.756;2023-05-16T03:10:59;2.23;;;0.50;;
63016;SDS011;50274;45.640;11.756;2023-05-16T03:13:25;3.80;;;0.65;;
63016;SDS011;50274;45.640;11.756;2023-05-16T03:15:52;2.70;;;0.70;;
63016;SDS011;50274;45.640;11.756;2023-05-16T03:18:18;3.03;;;0.65;;
63016;SDS011;50274;45.640;11.756;2023-05-16T03:20:43;2.70;;;0.70;;
63016;SDS011;50274;45.640;11.756;2023-05-16T03:23:09;3.47;;;0.70;;
63016;SDS011;50274;45.640;11.756;2023-05-16T03:25:36;3.07;;;0.60;;
63016;SDS011;50274;45.640;11.756;2023-05-16T03:28:02;2.67;;;0.60;;
63016;SDS011;50274;45.640;11.756;2023-05-16T03:30:32;3.70;;;0.70;;
63016;SDS011;50274;45.640;11.756;2023-05-16T03:32:58;3.50;;;0.70;;
63016;SDS011;50274;45.640;11.756;2023-05-16T03:35:24;4.55;;;0.75;;
63016;SDS011;50274;45.640;11.756;2023-05-16T03:37:50;3.15;;;0.63;;
63016;SDS011;50274;45.640;11.756;2023-05-16T03:40:16;2.50;;;0.50;;
63016;SDS011;50274;45.640;11.756;2023-05-16T03:42:42;2.75;;;0.60;;
63016;SDS011;50274;45.640;11.756;2023-05-16T03:45:07;2.57;;;0.63;;
63016;SDS011;50274;45.640;11.756;2023-05-16T03:47:33;2.35;;;0.60;;
63016;SDS011;50274;45.640;11.756;2023-05-16T03:49:59;3.28;;;0.65;;
63016;SDS011;50274;45.640;11.756;2023-05-16T03:52:25;2.80;;;0.60;;
63016;SDS011;50274;45.640;11.756;2023-05-16T03:54:51;2.60;;;0.67;;
63016;SDS011;50274;45.640;11.756;2023-05-16T03:57:17;2.88;;;0.70;;
63016;SDS011;50274;45.640;11.756;2023-05-16T03:59:43;3.77;;;0.63;;
63016;SDS011;50274;45.640;11.756;2023-05-16T04:02:08;3.15;;;0.70;;
63016;SDS011;50274;45.640;11.756;2023-05-16T04:04:34;2.78;;;0.55;;
63016;SDS011;50274;45.640;11.756;2023-05-16T04:07:00;2.97;;;0.77;;
63016;SDS011;50274;45.640;11.756;2023-05-16T04:09:26;2.67;;;0.65;;
63016;SDS011;50274;45.640;11.756;2023-05-16T04:11:52;2.28;;;0.57;;
63016;SDS011;50274;45.640;11.756;2023-05-16T04:14:20;3.10;;;0.70;;
63016;SDS011;50274;45.640;11.756;2023-05-16T04:16:49;5.47;;;0.70;;
63016;SDS011;50274;45.640;11.756;2023-05-16T04:19:15;2.78;;;0.60;;
63016;SDS011;50274;45.640;11.756;2023-05-16T04:21:41;3.03;;;0.80;;
63016;SDS011;50274;45.640;11.756;2023-05-16T04:24:07;3.33;;;0.50;;
63016;SDS011;50274;45.640;11.756;2023-05-16T04:26:33;2.97;;;0.70;;
63016;SDS011;50274;45.640;11.756;2023-05-16T04:28:59;4.18;;;0.60;;
63016;SDS011;50274;45.640;11.756;2023-05-16T04:31:25;2.53;;;0.50;;
63016;SDS011;50274;45.640;11.756;2023-05-16T04:33:51;3.97;;;0.70;;
63016;SDS011;50274;45.640;11.756;2023-05-16T04:36:17;3.05;;;0.75;;
63016;SDS011;50274;45.640;11.756;2023-05-16T04:38:43;2.33;;;0.60;;
63016;SDS011;50274;45.640;11.756;2023-05-16T04:41:10;3.00;;;0.80;;
63016;SDS011;50274;45.640;11.756;2023-05-16T04:43:37;2.77;;;0.70;;
63016;SDS011;50274;45.640;11.756;2023-05-16T04:46:04;3.00;;;0.70;;
63016;SDS011;50274;45.640;11.756;2023-05-16T04:48:31;2.92;;;0.65;;
63016;SDS011;50274;45.640;11.756;2023-05-16T04:50:57;3.38;;;0.75;;
63016;SDS011;50274;45.640;11.756;2023-05-16T04:53:23;2.80;;;0.67;;
63016;SDS011;50274;45.640;11.756;2023-05-16T04:55:49;3.10;;;0.70;;
63016;SDS011;50274;45.640;11.756;2023-05-16T04:58:15;3.58;;;0.88;;
63016;SDS011;50274;45.640;11.756;2023-05-16T05:00:41;4.45;;;0.70;;
63016;SDS011;50274;45.640;11.756;2023-05-16T05:03:07;2.97;;;0.77;;
63016;SDS011;50274;45.640;11.756;2023-05-16T05:05:33;2.65;;;0.70;;
63016;SDS011;50274;45.640;11.756;2023-05-16T05:07:59;3.10;;;0.70;;
63016;SDS011;50274;45.640;11.756;2023-05-16T05:10:25;3.90;;;0.93;;
63016;SDS011;50274;45.640;11.756;2023-05-16T05:12:55;3.20;;;0.80;;
63016;SDS011;50274;45.640;11.756;2023-05-16T05:15:22;4.00;;;1.02;;
63016;SDS011;50274;45.640;11.756;2023-05-16T05:17:47;2.72;;;0.70;;
63016;SDS011;50274;45.640;11.756;2023-05-16T05:20:13;3.43;;;1.00;;
63016;SDS011;50274;45.640;11.756;2023-05-16T05:22:39;4.10;;;1.27;;
63016;SDS011;50274;45.640;11.756;2023-05-16T05:25:05;3.60;;;1.20;;
63016;SDS011;50274;45.640;11.756;2023-05-16T05:27:31;3.70;;;1.50;;
63016;SDS011;50274;45.640;11.756;2023-05-16T05:29:57;3.73;;;1.10;;
63016;SDS011;50274;45.640;11.756;2023-05-16T05:32:23;3.90;;;1.02;;
63016;SDS011;50274;45.640;11.756;2023-05-16T05:34:48;4.37;;;1.63;;
63016;SDS011;50274;45.640;11.756;2023-05-16T05:37:15;5.65;;;1.30;;
63016;SDS011;50274;45.640;11.756;2023-05-16T05:39:41;4.78;;;1.60;;
63016;SDS011;50274;45.640;11.756;2023-05-16T05:42:07;4.60;;;1.63;;
63016;SDS011;50274;45.640;11.756;2023-05-16T05:44:33;4.67;;;1.40;;
63016;SDS011;50274;45.640;11.756;2023-05-16T05:46:59;4.70;;;1.85;;
63016;SDS011;50274;45.640;11.756;2023-05-16T05:49:25;4.30;;;1.30;;
63016;SDS011;50274;45.640;11.756;2023-05-16T05:51:51;4.90;;;1.50;;
63016;SDS011;50274;45.640;11.756;2023-05-16T05:54:18;5.78;;;1.48;;
63016;SDS011;50274;45.640;11.756;2023-05-16T05:56:44;4.60;;;1.65;;
63016;SDS011;50274;45.640;11.756;2023-05-16T05:59:10;5.78;;;2.70;;
63016;SDS011;50274;45.640;11.756;2023-05-16T06:01:36;5.57;;;2.90;;
63016;SDS011;50274;45.640;11.756;2023-05-16T06:04:02;5.43;;;2.42;;
63016;SDS011;50274;45.640;11.756;2023-05-16T06:06:28;5.80;;;2.45;;
63016;SDS011;50274;45.640;11.756;2023-05-16T06:08:55;5.75;;;2.22;;
63016;SDS011;50274;45.640;11.756;2023-05-16T06:11:20;4.43;;;1.67;;
63016;SDS011;50274;45.640;11.756;2023-05-16T06:13:46;7.05;;;2.30;;
63016;SDS011;50274;45.640;11.756;2023-05-16T06:16:12;4.18;;;1.70;;
63016;SDS011;50274;45.640;11.756;2023-05-16T06:18:38;4.07;;;1.57;;
63016;SDS011;50274;45.640;11.756;2023-05-16T06:21:04;4.40;;;1.67;;
63016;SDS011;50274;45.640;11.756;2023-05-16T06:23:31;4.95;;;1.60;;
63016;SDS011;50274;45.640;11.756;2023-05-16T06:25:57;4.72;;;1.15;;
63016;SDS011;50274;45.640;11.756;2023-05-16T06:28:22;4.10;;;1.40;;
63016;SDS011;50274;45.640;11.756;2023-05-16T06:30:49;4.95;;;1.20;;
63016;SDS011;50274;45.640;11.756;2023-05-16T06:33:16;4.32;;;1.17;;
63016;SDS011;50274;45.640;11.756;2023-05-16T06:35:42;4.57;;;1.00;;
63016;SDS011;50274;45.640;11.756;2023-05-16T06:38:08;3.67;;;1.27;;
63016;SDS011;50274;45.640;11.756;2023-05-16T06:40:34;5.53;;;1.30;;
63016;SDS011;50274;45.640;11.756;2023-05-16T06:43:00;4.78;;;1.92;;
63016;SDS011;50274;45.640;11.756;2023-05-16T06:45:26;4.83;;;1.10;;
63016;SDS011;50274;45.640;11.756;2023-05-16T06:47:51;4.10;;;1.20;;
63016;SDS011;50274;45.640;11.756;2023-05-16T06:50:17;4.97;;;1.20;;
63016;SDS011;50274;45.640;11.756;2023-05-16T06:52:43;3.88;;;1.20;;
63016;SDS011;50274;45.640;11.756;2023-05-16T06:55:09;3.30;;;1.10;;
63016;SDS011;50274;45.640;11.756;2023-05-16T06:57:57;6.25;;;1.25;;
63016;SDS011;50274;45.640;11.756;2023-05-16T07:03:17;6.70;;;1.13;;
63016;SDS011;50274;45.640;11.756;2023-05-16T07:05:43;4.63;;;1.00;;
63016;SDS011;50274;45.640;11.756;2023-05-16T07:08:09;3.90;;;0.93;;
63016;SDS011;50274;45.640;11.756;2023-05-16T07:10:36;5.93;;;1.20;;
63016;SDS011;50274;45.640;11.756;2023-05-16T07:13:05;4.82;;;1.10;;
63016;SDS011;50274;45.640;11.756;2023-05-16T07:15:31;5.22;;;1.10;;
63016;SDS011;50274;45.640;11.756;2023-05-16T07:17:57;7.87;;;1.17;;
63016;SDS011;50274;45.640;11.756;2023-05-16T07:20:23;3.65;;;1.27;;
63016;SDS011;50274;45.640;11.756;2023-05-16T07:22:49;9.32;;;1.42;;
63016;SDS011;50274;45.640;11.756;2023-05-16T07:25:37;4.73;;;1.50;;
63016;SDS011;50274;45.640;11.756;2023-05-16T07:28:02;5.18;;;1.75;;
63016;SDS011;50274;45.640;11.756;2023-05-16T07:30:28;4.38;;;1.58;;
63016;SDS011;50274;45.640;11.756;2023-05-16T07:32:54;4.65;;;1.40;;
63016;SDS011;50274;45.640;11.756;2023-05-16T07:35:20;5.87;;;1.40;;
63016;SDS011;50274;45.640;11.756;2023-05-16T07:37:46;6.45;;;1.50;;
63016;SDS011;50274;45.640;11.756;2023-05-16T07:40:12;5.78;;;1.50;;
63016;SDS011;50274;45.640;11.756;2023-05-16T07:42:38;3.72;;;1.23;;
63016;SDS011;50274;45.640;11.756;2023-05-16T07:45:05;3.70;;;1.20;;
63016;SDS011;50274;45.640;11.756;2023-05-16T07:47:31;4.82;;;1.45;;
63016;SDS011;50274;45.640;11.756;2023-05-16T07:49:57;4.70;;;1.67;;
63016;SDS011;50274;45.640;11.756;2023-05-16T07:52:23;6.27;;;1.40;;
63016;SDS011;50274;45.640;11.756;2023-05-16T07:54:49;4.38;;;1.50;;
63016;SDS011;50274;45.640;11.756;2023-05-16T07:57:14;3.92;;;1.38;;
63016;SDS011;50274;45.640;11.756;2023-05-16T07:59:41;5.27;;;1.60;;
63016;SDS011;50274;45.640;11.756;2023-05-16T08:02:09;4.05;;;1.45;;
63016;SDS011;50274;45.640;11.756;2023-05-16T08:04:35;6.60;;;1.38;;
63016;SDS011;50274;45.640;11.756;2023-05-16T08:07:01;4.47;;;1.50;;
63016;SDS011;50274;45.640;11.756;2023-05-16T08:09:27;4.28;;;1.65;;
63016;SDS011;50274;45.640;11.756;2023-05-16T08:11:53;3.27;;;1.13;;
63016;SDS011;50274;45.640;11.756;2023-05-16T08:14:19;4.30;;;1.33;;
63016;SDS011;50274;45.640;11.756;2023-05-16T08:16:45;4.17;;;1.20;;
63016;SDS011;50274;45.640;11.756;2023-05-16T08:19:11;3.53;;;0.93;;
63016;SDS011;50274;45.640;11.756;2023-05-16T08:21:36;3.58;;;1.00;;
63016;SDS011;50274;45.640;11.756;2023-05-16T08:24:03;6.43;;;1.50;;
63016;SDS011;50274;45.640;11.756;2023-05-16T08:26:29;4.87;;;1.40;;
63016;SDS011;50274;45.640;11.756;2023-05-16T08:28:56;5.75;;;1.40;;
63016;SDS011;50274;45.640;11.756;2023-05-16T08:31:21;7.13;;;1.20;;
63016;SDS011;50274;45.640;11.756;2023-05-16T08:33:47;9.23;;;1.30;;
63016;SDS011;50274;45.640;11.756;2023-05-16T08:36:13;6.90;;;2.05;;
63016;SDS011;50274;45.640;11.756;2023-05-16T08:38:40;5.10;;;1.45;;
63016;SDS011;50274;45.640;11.756;2023-05-16T08:41:06;3.93;;;1.43;;
63016;SDS011;50274;45.640;11.756;2023-05-16T08:43:32;5.18;;;1.50;;
63016;SDS011;50274;45.640;11.756;2023-05-16T08:45:59;4.47;;;1.58;;
63016;SDS011;50274;45.640;11.756;2023-05-16T08:48:25;6.30;;;1.53;;
63016;SDS011;50274;45.640;11.756;2023-05-16T08:50:52;7.00;;;2.03;;
63016;SDS011;50274;45.640;11.756;2023-05-16T08:53:20;5.10;;;2.05;;
63016;SDS011;50274;45.640;11.756;2023-05-16T08:55:50;8.35;;;2.10;;
63016;SDS011;50274;45.640;11.756;2023-05-16T08:58:16;7.15;;;2.25;;
63016;SDS011;50274;45.640;11.756;2023-05-16T09:00:43;4.43;;;1.67;;
63016;SDS011;50274;45.640;11.756;2023-05-16T09:03:10;5.32;;;1.80;;
63016;SDS011;50274;45.640;11.756;2023-05-16T09:05:36;6.70;;;1.77;;
63016;SDS011;50274;45.640;11.756;2023-05-16T09:08:02;6.13;;;1.88;;
63016;SDS011;50274;45.640;11.756;2023-05-16T09:10:28;5.27;;;2.10;;
63016;SDS011;50274;45.640;11.756;2023-05-16T09:12:54;4.80;;;1.67;;
63016;SDS011;50274;45.640;11.756;2023-05-16T09:15:20;7.10;;;1.98;;
63016;SDS011;50274;45.640;11.756;2023-05-16T09:17:46;5.37;;;2.00;;
63016;SDS011;50274;45.640;11.756;2023-05-16T09:20:13;4.75;;;1.90;;
63016;SDS011;50274;45.640;11.756;2023-05-16T09:22:53;5.32;;;1.98;;
63016;SDS011;50274;45.640;11.756;2023-05-16T09:25:22;5.75;;;1.80;;
63016;SDS011;50274;45.640;11.756;2023-05-16T09:27:52;4.90;;;1.67;;
63016;SDS011;50274;45.640;11.756;2023-05-16T09:30:27;3.73;;;1.47;;
63016;SDS011;50274;45.640;11.756;2023-05-16T09:32:54;4.63;;;1.80;;
63016;SDS011;50274;45.640;11.756;2023-05-16T09:35:20;4.47;;;1.58;;
63016;SDS011;50274;45.640;11.756;2023-05-16T09:37:48;4.78;;;2.00;;
63016;SDS011;50274;45.640;11.756;2023-05-16T09:40:19;6.22;;;1.60;;
63016;SDS011;50274;45.640;11.756;2023-05-16T09:42:46;6.33;;;1.73;;
63016;SDS011;50274;45.640;11.756;2023-05-16T09:45:18;4.80;;;1.48;;
63016;SDS011;50274;45.640;11.756;2023-05-16T09:47:43;5.85;;;1.70;;
63016;SDS011;50274;45.640;11.756;2023-05-16T09:50:12;5.18;;;2.20;;
63016;SDS011;50274;45.640;11.756;2023-05-16T09:52:39;6.33;;;2.37;;
63016;SDS011;50274;45.640;11.756;2023-05-16T09:55:06;5.63;;;2.50;;
63016;SDS011;50274;45.640;11.756;2023-05-16T09:57:35;6.10;;;2.00;;
63016;SDS011;50274;45.640;11.756;2023-05-16T10:00:04;6.20;;;2.20;;
63016;SDS011;50274;45.640;11.756;2023-05-16T10:02:37;7.35;;;2.50;;
63016;SDS011;50274;45.640;11.756;2023-05-16T10:05:03;5.47;;;2.10;;
63016;SDS011;50274;45.640;11.756;2023-05-16T10:07:30;9.63;;;2.13;;
63016;SDS011;50274;45.640;11.756;2023-05-16T10:10:00;8.32;;;2.42;;
63016;SDS011;50274;45.640;11.756;2023-05-16T10:12:30;6.60;;;2.60;;
63016;SDS011;50274;45.640;11.756;2023-05-16T10:14:59;6.75;;;2.22;;
63016;SDS011;50274;45.640;11.756;2023-05-16T10:17:27;6.03;;;2.20;;
63016;SDS011;50274;45.640;11.756;2023-05-16T10:19:56;6.03;;;2.70;;
63016;SDS011;50274;45.640;11.756;2023-05-16T10:22:25;6.25;;;2.53;;
63016;SDS011;50274;45.640;11.756;2023-05-16T10:27:23;6.47;;;2.67;;
63016;SDS011;50274;45.640;11.756;2023-05-16T10:29:49;15.70;;;3.13;;
63016;SDS011;50274;45.640;11.756;2023-05-16T10:32:16;9.02;;;3.13;;
63016;SDS011;50274;45.640;11.756;2023-05-16T10:34:43;6.57;;;2.30;;
63016;SDS011;50274;45.640;11.756;2023-05-16T10:37:10;4.47;;;2.00;;
63016;SDS011;50274;45.640;11.756;2023-05-16T10:39:36;6.35;;;2.05;;
63016;SDS011;50274;45.640;11.756;2023-05-16T10:42:04;5.40;;;1.80;;
63016;SDS011;50274;45.640;11.756;2023-05-16T10:44:31;4.22;;;1.80;;
63016;SDS011;50274;45.640;11.756;2023-05-16T10:47:00;4.97;;;1.75;;
63016;SDS011;50274;45.640;11.756;2023-05-16T10:49:29;5.47;;;1.65;;
63016;SDS011;50274;45.640;11.756;2023-05-16T10:54:40;3.10;;;1.07;;
63016;SDS011;50274;45.640;11.756;2023-05-16T10:57:11;3.30;;;0.90;;
63016;SDS011;50274;45.640;11.756;2023-05-16T10:59:44;3.00;;;0.80;;
63016;SDS011;50274;45.640;11.756;2023-05-16T11:05:06;5.28;;;1.00;;
63016;SDS011;50274;45.640;11.756;2023-05-16T11:07:37;5.63;;;0.87;;
63016;SDS011;50274;45.640;11.756;2023-05-16T11:10:04;3.15;;;0.65;;
63016;SDS011;50274;45.640;11.756;2023-05-16T11:17:50;2.70;;;0.43;;
63016;SDS011;50274;45.640;11.756;2023-05-16T11:20:31;2.42;;;0.43;;
63016;SDS011;50274;45.640;11.756;2023-05-16T11:23:20;2.28;;;0.40;;
63016;SDS011;50274;45.640;11.756;2023-05-16T11:25:55;2.53;;;0.63;;
63016;SDS011;50274;45.640;11.756;2023-05-16T11:28:24;2.65;;;0.50;;
63016;SDS011;50274;45.640;11.756;2023-05-16T11:30:52;2.07;;;0.33;;
63016;SDS011;50274;45.640;11.756;2023-05-16T11:33:20;2.08;;;0.20;;
63016;SDS011;50274;45.640;11.756;2023-05-16T11:36:03;2.88;;;0.40;;
63016;SDS011;50274;45.640;11.756;2023-05-16T11:38:30;3.83;;;0.30;;
63016;SDS011;50274;45.640;11.756;2023-05-16T11:41:06;4.20;;;0.40;;
63016;SDS011;50274;45.640;11.756;2023-05-16T11:43:42;3.33;;;0.43;;
63016;SDS011;50274;45.640;11.756;2023-05-16T11:46:15;4.70;;;0.57;;
63016;SDS011;50274;45.640;11.756;2023-05-16T11:48:41;2.17;;;0.40;;
63016;SDS011;50274;45.640;11.756;2023-05-16T11:51:10;1.20;;;0.20;;
63016;SDS011;50274;45.640;11.756;2023-05-16T11:53:36;1.07;;;0.10;;
63016;SDS011;50274;45.640;11.756;2023-05-16T11:56:02;2.10;;;0.40;;
63016;SDS011;50274;45.640;11.756;2023-05-16T11:58:28;3.88;;;0.38;;
63016;SDS011;50274;45.640;11.756;2023-05-16T12:00:54;1.58;;;0.20;;
63016;SDS011;50274;45.640;11.756;2023-05-16T12:03:20;2.10;;;0.30;;
63016;SDS011;50274;45.640;11.756;2023-05-16T12:05:53;1.33;;;0.30;;
63016;SDS011;50274;45.640;11.756;2023-05-16T12:08:21;2.33;;;0.30;;
63016;SDS011;50274;45.640;11.756;2023-05-16T12:10:48;1.88;;;0.20;;
63016;SDS011;50274;45.640;11.756;2023-05-16T12:13:16;2.22;;;0.22;;
63016;SDS011;50274;45.640;11.756;2023-05-16T12:15:46;1.77;;;0.30;;
63016;SDS011;50274;45.640;11.756;2023-05-16T12:18:13;1.50;;;0.20;;
63016;SDS011;50274;45.640;11.756;2023-05-16T12:20:40;4.70;;;0.20;;
63016;SDS011;50274;45.640;11.756;2023-05-16T12:23:10;3.17;;;0.30;;
63016;SDS011;50274;45.640;11.756;2023-05-16T12:25:37;1.88;;;0.20;;
63016;SDS011;50274;45.640;11.756;2023-05-16T12:28:10;2.13;;;0.20;;
63016;SDS011;50274;45.640;11.756;2023-05-16T12:30:39;1.65;;;0.17;;
63016;SDS011;50274;45.640;11.756;2023-05-16T12:33:13;2.38;;;0.30;;
63016;SDS011;50274;45.640;11.756;2023-05-16T12:35:40;1.77;;;0.30;;
63016;SDS011;50274;45.640;11.756;2023-05-16T12:38:09;2.33;;;0.30;;
63016;SDS011;50274;45.640;11.756;2023-05-16T12:40:36;2.13;;;0.30;;
63016;SDS011;50274;45.640;11.756;2023-05-16T12:43:04;2.08;;;0.20;;
63016;SDS011;50274;45.640;11.756;2023-05-16T12:45:39;1.15;;;0.20;;
63016;SDS011;50274;45.640;11.756;2023-05-16T12:48:12;3.83;;;0.30;;
63016;SDS011;50274;45.640;11.756;2023-05-16T12:50:39;2.50;;;0.17;;
63016;SDS011;50274;45.640;11.756;2023-05-16T12:53:09;4.23;;;0.23;;
63016;SDS011;50274;45.640;11.756;2023-05-16T12:55:37;3.58;;;0.20;;
63016;SDS011;50274;45.640;11.756;2023-05-16T12:58:03;1.50;;;0.28;;
63016;SDS011;50274;45.640;11.756;2023-05-16T13:00:28;3.78;;;0.20;;
63016;SDS011;50274;45.640;11.756;2023-05-16T13:02:56;0.87;;;0.20;;
63016;SDS011;50274;45.640;11.756;2023-05-16T13:05:22;2.22;;;0.20;;
63016;SDS011;50274;45.640;11.756;2023-05-16T13:07:48;1.70;;;0.20;;
63016;SDS011;50274;45.640;11.756;2023-05-16T13:10:15;1.35;;;0.20;;
63016;SDS011;50274;45.640;11.756;2023-05-16T13:12:42;1.97;;;0.20;;
63016;SDS011;50274;45.640;11.756;2023-05-16T13:15:09;1.75;;;0.20;;
63016;SDS011;50274;45.640;11.756;2023-05-16T13:17:40;2.65;;;0.20;;
63016;SDS011;50274;45.640;11.756;2023-05-16T13:20:11;3.20;;;0.20;;
63016;SDS011;50274;45.640;11.756;2023-05-16T13:22:42;2.65;;;0.22;;
63016;SDS011;50274;45.640;11.756;2023-05-16T13:25:09;3.23;;;0.20;;
63016;SDS011;50274;45.640;11.756;2023-05-16T13:27:35;1.92;;;0.20;;
63016;SDS011;50274;45.640;11.756;2023-05-16T13:30:01;2.10;;;0.30;;
63016;SDS011;50274;45.640;11.756;2023-05-16T13:32:28;1.85;;;0.20;;
63016;SDS011;50274;45.640;11.756;2023-05-16T13:34:54;3.07;;;0.20;;
63016;SDS011;50274;45.640;11.756;2023-05-16T13:37:19;2.83;;;0.40;;
63016;SDS011;50274;45.640;11.756;2023-05-16T13:39:48;1.92;;;0.20;;
63016;SDS011;50274;45.640;11.756;2023-05-16T13:42:14;5.93;;;0.30;;
63016;SDS011;50274;45.640;11.756;2023-05-16T13:44:40;2.08;;;0.30;;
63016;SDS011;50274;45.640;11.756;2023-05-16T13:47:06;2.13;;;0.20;;
63016;SDS011;50274;45.640;11.756;2023-05-16T13:49:32;3.00;;;0.40;;
63016;SDS011;50274;45.640;11.756;2023-05-16T13:51:58;5.10;;;0.40;;
63016;SDS011;50274;45.640;11.756;2023-05-16T13:54:25;2.28;;;0.30;;
63016;SDS011;50274;45.640;11.756;2023-05-16T13:56:51;2.38;;;0.50;;
63016;SDS011;50274;45.640;11.756;2023-05-16T13:59:17;1.67;;;0.30;;
63016;SDS011;50274;45.640;11.756;2023-05-16T14:01:43;1.83;;;0.33;;
63016;SDS011;50274;45.640;11.756;2023-05-16T14:04:09;1.70;;;0.40;;
63016;SDS011;50274;45.640;11.756;2023-05-16T14:06:34;1.63;;;0.30;;
63016;SDS011;50274;45.640;11.756;2023-05-16T14:09:01;2.17;;;0.20;;
63016;SDS011;50274;45.640;11.756;2023-05-16T14:11:27;2.20;;;0.40;;
63016;SDS011;50274;45.640;11.756;2023-05-16T14:13:53;1.45;;;0.30;;
63016;SDS011;50274;45.640;11.756;2023-05-16T14:16:21;3.47;;;0.30;;
63016;SDS011;50274;45.640;11.756;2023-05-16T14:18:47;1.17;;;0.20;;
63016;SDS011;50274;45.640;11.756;2023-05-16T14:21:13;1.90;;;0.30;;
63016;SDS011;50274;45.640;11.756;2023-05-16T14:23:38;1.30;;;0.20;;
63016;SDS011;50274;45.640;11.756;2023-05-16T14:26:05;1.52;;;0.20;;
63016;SDS011;50274;45.640;11.756;2023-05-16T14:28:31;2.10;;;0.38;;
63016;SDS011;50274;45.640;11.756;2023-05-16T14:30:57;1.15;;;0.10;;
63016;SDS011;50274;45.640;11.756;2023-05-16T14:33:24;2.15;;;0.40;;
63016;SDS011;50274;45.640;11.756;2023-05-16T14:35:50;2.90;;;0.30;;
63016;SDS011;50274;45.640;11.756;2023-05-16T14:38:16;2.25;;;0.45;;
63016;SDS011;50274;45.640;11.756;2023-05-16T14:40:42;2.08;;;0.30;;
63016;SDS011;50274;45.640;11.756;2023-05-16T14:43:08;2.03;;;0.30;;
63016;SDS011;50274;45.640;11.756;2023-05-16T14:45:34;1.70;;;0.30;;
63016;SDS011;50274;45.640;11.756;2023-05-16T14:48:01;1.30;;;0.30;;
63016;SDS011;50274;45.640;11.756;2023-05-16T14:50:26;2.47;;;0.30;;
63016;SDS011;50274;45.640;11.756;2023-05-16T14:52:52;1.50;;;0.20;;
63016;SDS011;50274;45.640;11.756;2023-05-16T14:55:18;2.35;;;0.30;;
63016;SDS011;50274;45.640;11.756;2023-05-16T14:57:44;2.08;;;0.40;;
63016;SDS011;50274;45.640;11.756;2023-05-16T15:00:11;2.47;;;0.50;;
63016;SDS011;50274;45.640;11.756;2023-05-16T15:02:39;4.20;;;0.30;;
63016;SDS011;50274;45.640;11.756;2023-05-16T15:05:05;2.90;;;0.43;;
63016;SDS011;50274;45.640;11.756;2023-05-16T15:07:31;2.60;;;0.43;;